ImprimablePdf
Brussels, 10/10/2010, BEL - Brussels Marathon & Half Marathon
Liste des rapports > Half Marathon - Classement + Video
Recherche: Page: 1 2 3 4 5 6 7 8 [9] 10 11 12 13 14 15 16 17 18 19 20 21 22 23 24 25
4916 Entrées
 
Have a look to your pictures by clicking on the Sportograf Icon in the left side!

Les réclamations ne sont plus acceptées, les résultats sont considérés comme définitifs.
Catégorie
PosNrNomAgeIOCTempsTkmMoy.RangNomLocalité
Vos photos grâce à Sportograf1601.9161VERHEYDEN Bruno14BEL1:47:035:05 11.82646SEHRONSE
Vos photos grâce à Sportograf1602.7403ANDREASEN Asger42BEL1:47:035:05 11.82229M40WATERLOO
Vos photos grâce à Sportograf1602.3304DE BOEVER Koen46BEL1:47:035:05 11.82162M45MARIAKERKE (GENT)
Vos photos grâce à Sportograf1604.3004DOUCHY Vincent26BEL1:47:035:05 11.82647SEHHEIST-OP-DEN-BERG
Vos photos grâce à Sportograf1605.4696POORTMANS Pierre481:47:045:05 11.82163M45
Vos photos grâce à Sportograf1606.4700BILLANE Hugh29BEL1:47:055:05 11.82648SEHBRUXELLES
Vos photos grâce à Sportograf1607.9344FRANCOIS Philippe35BEL1:47:055:05 11.82285M35
Vos photos grâce à Sportograf1608.5787VAN WUNNIK Martin43BEL1:47:065:05 11.82230M40LEDE
Vos photos grâce à Sportograf1609.9261MEESTERS Joos32BEL1:47:075:05 11.82649SEHLANAKEN
Vos photos grâce à Sportograf1610.7499FDENDOOVEN Annick40BEL1:47:085:05 11.8214F40KOKSIJDE
Vos photos grâce à Sportograf1611.6451KIPS Stefan48BEL1:47:105:05 11.81164M45KNOKKE-HEIST
Vos photos grâce à Sportograf1612.7542NOEL Frederic31FRA1:47:105:05 11.81650SEHLILLE
Vos photos grâce à Sportograf1613.7936HOEFKENS Herman46BEL1:47:115:05 11.81165M45SINT KATELIJNE WAVER
Vos photos grâce à Sportograf1614.4650LLESHI Pllumb30BEL1:47:125:05 11.81651SEHTERVUREN
Vos photos grâce à Sportograf1615.9160VANHAEREM Bram20BEL1:47:125:05 11.81652SEHKAPELLEN
Vos photos grâce à Sportograf1616.7237VALLERIO Mattia25BEL1:47:145:05 11.80653SEHLEUVEN
Vos photos grâce à Sportograf1617.9679FBURT Fiona50BEL1:47:155:06 11.8013F45WOLUWE SAINT-PIERRE
Vos photos grâce à Sportograf1618.8490NIELSAN Jan55BEL1:47:155:06 11.8044M55
Vos photos grâce à Sportograf1619.7987ABRAHAM Luc53BEL1:47:155:06 11.8092M50WATERLOO
Vos photos grâce à Sportograf1620.7138LAFORGE Olivier52BEL1:47:165:06 11.8093M50IXELLES
Vos photos grâce à Sportograf1621.9258NR 9258 -1:47:165:06 11.80-
Vos photos grâce à Sportograf1622.7820FCASSIERS Hermien19BEL1:47:175:06 11.8063SEFTIEGEM
Vos photos grâce à Sportograf1623.7246FEGGERMONT Dominique31BEL1:47:175:06 11.8064SEFENGHIEN
Vos photos grâce à Sportograf1624.5430DUFRESNE Guillaume26BEL1:47:175:06 11.80654SEHETTERBEEK
Vos photos grâce à Sportograf1625.5775MARTENS Thierry41BEL1:47:175:06 11.80231M40BRUSSEL
Vos photos grâce à Sportograf1626.9214AUTESSERRE Alain22BEL1:47:185:06 11.80655SEHWILRIJK
Vos photos grâce à Sportograf1627.3607YAMADA Shuji47BEL1:47:195:06 11.80166M45WOLUWE-SAINT-PIERRE
Vos photos grâce à Sportograf1628.9118MITTERMAYER Felix43AUT1:47:195:06 11.79232M40BRUXELLES
Vos photos grâce à Sportograf1629.6416FFROIK Birgit45BEL1:47:195:06 11.7914F45BRUXELLES 17
Vos photos grâce à Sportograf1630.8020LONCKE Staf17BEL1:47:195:06 11.79656SEHZWEVEGEM
Vos photos grâce à Sportograf1631.5933LEFEVER Rene67BEL1:47:205:06 11.794M65HERNE
Vos photos grâce à Sportograf1632.5614MABROUR Hicham39BEL1:47:215:06 11.79286M35MERCHTEM
Vos photos grâce à Sportograf1633.7427MASFRANCX Jonathan31BEL1:47:235:06 11.79657SEHMEERBEKE(NINOVE)
Vos photos grâce à Sportograf1634.9780FO'FLYNN Jessica24BEL1:47:245:06 11.7965SEFETTERBEEK
Vos photos grâce à Sportograf1635.5828VEILLARD Patrick34BEL1:47:255:06 11.78658SEHSAINT-GILLES
Vos photos grâce à Sportograf1636.4987FEVERS Karien1:47:265:06 11.78-
Vos photos grâce à Sportograf1637.4887PUNT Leo44NLD1:47:285:06 11.78233M40RIDDERKERK
Vos photos grâce à Sportograf1638.5168ENGELEN Dave36BEL1:47:285:06 11.78287M35MERKSEM (ANTWERPEN)
Vos photos grâce à Sportograf1639.6911MICHEL Olivier29BEL1:47:295:06 11.78659SEHLIMELETTE
Vos photos grâce à Sportograf1640.8338FFITZSIMONS Sinead24BEL1:47:305:06 11.7866SEFBRUXELLES
Vos photos grâce à Sportograf1641.7357WINKER Oliver37BEL1:47:305:06 11.77288M35BRUXELLES 17
Vos photos grâce à Sportograf1642.9205SARENS Jos50BEL1:47:315:06 11.77167M45DENDERMONDE
Vos photos grâce à Sportograf1643.8028HOREJSI Tomas38BEL1:47:315:06 11.77289M35WSL
Vos photos grâce à Sportograf1644.4395MINET Jean-Marie26BEL1:47:315:06 11.77660SEHBRUXELLES
Vos photos grâce à Sportograf1645.4914HUYGH Bernard33BEL1:47:315:06 11.77661SEHWAVRE
Vos photos grâce à Sportograf1646.9298VAN STEIRTEGEM Olivier30BEL1:47:315:06 11.77662SEHAUDERGHEM
Vos photos grâce à Sportograf1647.9277VERSTRINGE Marco44BEL1:47:335:06 11.77234M40GENT
Vos photos grâce à Sportograf1648.8056HENRIST Nigel16BEL1:47:335:06 11.77663SEHKLUISBERGEN
Vos photos grâce à Sportograf1649.7661IANNUCCI MarcBEL1:47:335:06 11.77-BRUXELLES 17
Vos photos grâce à Sportograf1650.7233DELRUE Danny52BEL1:47:345:06 11.7794M50SINT-ANDRIES
Vos photos grâce à Sportograf1651.8146VANHOYWEGHEN Jan43BEL1:47:345:06 11.77235M40BRUSSEL 21
Vos photos grâce à Sportograf1652.6571DEVOS Serge39BEL1:47:345:06 11.77290M35GANSHOREN
Vos photos grâce à Sportograf1653.4857HOLLEVOET Sepp35BEL1:47:355:06 11.77291M35HAASDONK
Vos photos grâce à Sportograf1654.9640FZELENIUTE Edita35BEL1:47:365:07 11.7667SEFBRUXELLES
Vos photos grâce à Sportograf1655.9509DEQUINNEMAERE Philippe43BEL1:47:365:07 11.76236M40VILVOORDE
Vos photos grâce à Sportograf1656.6798SPARAS Denis31BEL1:47:375:07 11.76664SEHWOLUWE-SAINT-LAMBERT
Vos photos grâce à Sportograf1657.6335MOEYERSOEN Gert33BEL1:47:375:07 11.76665SEHBERLARE
Vos photos grâce à Sportograf1658.9159DEBUE Jeroen23BEL1:47:385:07 11.76666SEHANTWERPEN
Vos photos grâce à Sportograf1659.5304FMAES Marlies25BEL1:47:385:07 11.7668SEFELSENE
Vos photos grâce à Sportograf1660.9218DEMAITER Philip45BEL1:47:395:07 11.76168M45
Vos photos grâce à Sportograf1661.4273DE BRUYN Erik36BEL1:47:395:07 11.76292M35ANTWERPEN
Vos photos grâce à Sportograf1662.8031GEERTS Dirk43BEL1:47:395:07 11.76237M40TURNHOUT
Vos photos grâce à Sportograf1663.9422COURTOY Jean-Marie50BEL1:47:395:07 11.7695M50LIMELETTE
Vos photos grâce à Sportograf1664.7880DEBANDE Olivier43BEL1:47:395:07 11.76238M40OTTIGNIES
Vos photos grâce à Sportograf1665.6807CALTHROP Edward39BEL1:47:405:07 11.76293M35LEUVEN
Vos photos grâce à Sportograf1666.7248LECLEF Julien29BEL1:47:405:07 11.76667SEHCHARLEROI
Vos photos grâce à Sportograf1667.8081BROCKHOVEN Ruben18BEL1:47:405:07 11.76668SEHHAM
Vos photos grâce à Sportograf1668.7126KARLE Heiko31BEL1:47:425:07 11.75669SEHBRUXELLES
Vos photos grâce à Sportograf1669.9101FTOMCZAK Nathalie46FRA1:47:425:07 11.7515F45
Vos photos grâce à Sportograf1670.9639BIZZARRI Yan27BEL1:47:425:07 11.75670SEHFOREST
Vos photos grâce à Sportograf1671.8441BURYTA Maciej37POL1:47:425:07 11.75294M35
Vos photos grâce à Sportograf1672.4417FOGATA Setsuko61JPN1:47:435:07 11.751F60TOKYO
Vos photos grâce à Sportograf1673.8326VITSENBLOM Boris331:47:435:07 11.75671SEH
Vos photos grâce à Sportograf1674.9542RENNESON Bernard59BEL1:47:435:07 11.7545M55BRUXELLES 20
Vos photos grâce à Sportograf1675.5584WEBERMAN Gary38BEL1:47:435:07 11.75295M35WILRIJK
Vos photos grâce à Sportograf1676.6802ARENT Claude45LUX1:47:435:07 11.75169M45BERTRANGE
Vos photos grâce à Sportograf1677.8392BENASSI Mario51ITA1:47:445:07 11.7596M50
Vos photos grâce à Sportograf1678.3072CARTON Frederic48BEL1:47:445:07 11.75170M45ALKEN
Vos photos grâce à Sportograf1679.6730BALDEWYNS Pierre38BEL1:47:445:07 11.75296M35MAZY
Vos photos grâce à Sportograf1680.4080COPPOLA Gerardo38LUX1:47:445:07 11.75297M35LUXEMBOURG
Vos photos grâce à Sportograf1681.7264EL ASLI Ali32BEL1:47:445:07 11.75672SEHBRUXELLES
Vos photos grâce à Sportograf1682.9707DUCOBU Denis341:47:455:07 11.75673SEH
Vos photos grâce à Sportograf1683.4812DORLO Thomas27NLD1:47:455:07 11.75674SEHUTRECHT
Vos photos grâce à Sportograf1684.6409THIRD Ian57BEL1:47:455:07 11.7546M55MEISE
Vos photos grâce à Sportograf1685.6528DIRKX Oliver40BEL1:47:465:07 11.75298M35LEUVEN
Vos photos grâce à Sportograf1686.7449FSANTOS Valerie38BEL1:47:465:07 11.7519F35UCCLE
Vos photos grâce à Sportograf1687.6808DE RAMOS Javier48BEL1:47:475:07 11.74171M45BRUXELLES
Vos photos grâce à Sportograf1688.9677VANDERSTRAETEN Benoit54BEL1:47:475:07 11.7497M50BRUXELLES 3
Vos photos grâce à Sportograf1689.3726FBAMBURY Pauline60GBR1:47:475:07 11.742F60BEDFORD
Vos photos grâce à Sportograf1690.5973TARI Andras33BEL1:47:485:07 11.74675SEHBRUXELLES
Vos photos grâce à Sportograf1691.9756FBAJART Caroline33BEL1:47:485:07 11.7469SEFOPHAIN-BOIS-SEIGNEUR-ISAAC
Vos photos grâce à Sportograf1692.5534MINICHILLI Federico40DEU1:47:495:07 11.74239M40KOLN
Vos photos grâce à Sportograf1693.6513CLAUSEN Tom50BEL1:47:505:07 11.74172M45UCCLE
Vos photos grâce à Sportograf1694.4911REY Patrick48BEL1:47:505:07 11.74173M45IXELLES
Vos photos grâce à Sportograf1695.4729VAN DER PUTTEN Frank47BEL1:47:515:07 11.74174M45LEEST
Vos photos grâce à Sportograf1696.7464PAUWELS Marc58BEL1:47:515:07 11.7447M55ROTSELAAR
Vos photos grâce à Sportograf1697.7160REU Marc54BEL1:47:515:07 11.7498M50MECHELEN
Vos photos grâce à Sportograf1698.7378WILSON Grant36BEL1:47:535:07 11.73299M35UCCLE
Vos photos grâce à Sportograf1699.6495WALTENS Marc48BEL1:47:545:07 11.73175M45JETTE
Vos photos grâce à Sportograf1700.6590GANTY Julien26BEL1:47:545:07 11.73676SEHBRAINE-LE-COMTE
Vos photos grâce à Sportograf1701.6679BORGER Frank47BEL1:47:565:07 11.73176M45WERCHTER
Vos photos grâce à Sportograf1702.6106METTEN Rony51BEL1:47:565:07 11.7399M50SCHAFFEN
Vos photos grâce à Sportograf1703.9964BOURGUIGNON Pierre38BEL1:47:575:08 11.73300M35BRUXELLES
Vos photos grâce à Sportograf1704.6731LEMMENS PatrickBEL1:47:595:08 11.72-ALKEN
Vos photos grâce à Sportograf1705.9122HASHEMI Jafar36BEL1:47:595:08 11.72301M35
Vos photos grâce à Sportograf1706.7421DE ROUCK Benedicte43BEL1:47:595:08 11.72240M40MERCHTEM
Vos photos grâce à Sportograf1707.7365BARBE Geert40BEL1:48:005:08 11.72241M40ASSE
Vos photos grâce à Sportograf1708.8484DE NEYS Kristof28BEL1:48:005:08 11.72677SEH
Vos photos grâce à Sportograf1709.7698FEVERAERT Annemie54BEL1:48:005:08 11.723F50ZELE
Vos photos grâce à Sportograf1710.3599ROEGIERS Luc32BEL1:48:005:08 11.72678SEHANTWERPEN 1
Vos photos grâce à Sportograf1711.7429DE MESMAEKER Peter43BEL1:48:015:08 11.72242M40ASSE
Vos photos grâce à Sportograf1712.8087HEUREUX Francois33BEL1:48:015:08 11.72679SEHWEZEMBEEK-OPPEM
Vos photos grâce à Sportograf1713.5502PROVOST Lode34BEL1:48:025:08 11.72680SEHBRUGGE
Vos photos grâce à Sportograf1714.3422VAN DER STIJN Ma??37NLD1:48:035:08 11.71302M35
Vos photos grâce à Sportograf1715.9541DEVOGELAER Eddy51BEL1:48:045:08 11.71100M50IDDERGEM
Vos photos grâce à Sportograf1716.7431DE CONINCK Jan29BEL1:48:045:08 11.71681SEHBEVEREN-WAES
Vos photos grâce à Sportograf1717.6429LA SOE William54BEL1:48:065:08 11.71101M50STROMBEEK-BEVER
Vos photos grâce à Sportograf1718.5832VERSPECHT Didier42BEL1:48:075:08 11.71243M40BEIGEM
Vos photos grâce à Sportograf1719.6143PRIOLE Joao43BEL1:48:085:08 11.71244M40BRUSSELS
Vos photos grâce à Sportograf1720.4243DE FELIPE GARDON Jose Luis50BEL1:48:085:08 11.71102M50BRUXELLES
Vos photos grâce à Sportograf1721.4246FSOTO Emma33BEL1:48:085:08 11.7170SEFBRUXELLES
Vos photos grâce à Sportograf1722.7072FREES Stephan38BEL1:48:105:08 11.70303M35GENT
Vos photos grâce à Sportograf1723.5382CONTI Manuel30BEL1:48:115:08 11.70682SEHSAINT GILLES
Vos photos grâce à Sportograf1724.6460LASSUS Gregory33BEL1:48:115:08 11.70683SEHBRUXELLES
Vos photos grâce à Sportograf1725.4264VERTOMMEN Nicolas28BEL1:48:135:08 11.70684SEHBRUXELLES
Vos photos grâce à Sportograf1726.4913FBEYENS Barbel25BEL1:48:135:08 11.7071SEFBRUGGE
Vos photos grâce à Sportograf1727.9616BOELAERT Guido54BEL1:48:135:08 11.70103M50WELLE
Vos photos grâce à Sportograf1728.6806WHEEDLON Stuart46GBR1:48:145:08 11.69177M45ROTHWELL, KETTERING
Vos photos grâce à Sportograf1729.5675PLESTEDE Neil55GBR1:48:155:08 11.69104M50WIRRAL
Vos photos grâce à Sportograf1730.4034FCOOLS Nathalie35BEL1:48:165:08 11.6920F35OVERIJSE
Vos photos grâce à Sportograf1731.8413TAKIGAWA Hidetoshi48BEL1:48:165:08 11.69178M45
Vos photos grâce à Sportograf1732.4640FORSS Mikko29BEL1:48:175:08 11.69685SEHBRUSSELS
Vos photos grâce à Sportograf1733.8464BROUX Simon30BEL1:48:175:08 11.69686SEHLEUVEN
Vos photos grâce à Sportograf1734.5269MOTRY Benoit30BEL1:48:185:09 11.69687SEHWAVRE
Vos photos grâce à Sportograf1735.8425TIJHUIS René43NLD1:48:195:09 11.69245M40UKKEL
Vos photos grâce à Sportograf1736.7862SCHUERMANS Wim28BEL1:48:195:09 11.69688SEHMAASEIK
Vos photos grâce à Sportograf1737.5693FMCALLISTER Sally32GBR1:48:195:09 11.6972SEFNINE ELMS LANE, LONDON
Vos photos grâce à Sportograf1738.9923SWENNEN Jean-Philippe33BEL1:48:205:09 11.68689SEHTERVUREN
Vos photos grâce à Sportograf1739.6685LAMBIOTTE Olivier38BEL1:48:205:09 11.68304M35FORCHIES-LA-MERCHE
Vos photos grâce à Sportograf1740.4992FBASTEMEIJER Carla38NLD1:48:205:09 11.6821F35RHOON
Vos photos grâce à Sportograf1741.3245FWYCKMANS Rita57BEL1:48:205:09 11.682F55TEMSE
Vos photos grâce à Sportograf1742.6509FVOLKAERTS Christine40BEL1:48:215:09 11.6815F40WOLUWE-SAINT-LAMBERT
Vos photos grâce à Sportograf1743.9900DI BLASIO Donato54ITA1:48:215:09 11.68105M50
Vos photos grâce à Sportograf1744.5465TESSIER Brecht33BEL1:48:225:09 11.68690SEHROESELARE
Vos photos grâce à Sportograf1745.6392DAVIN Fabien41BEL1:48:225:09 11.68246M40LAMBUSART
Vos photos grâce à Sportograf1746.7135DE SCHUYTENEER Guido56BEL1:48:225:09 11.6848M55NINOVE
Vos photos grâce à Sportograf1747.6848SCHYNS Andre45BEL1:48:235:09 11.68179M45GOE
Vos photos grâce à Sportograf1748.7117PAKARINEN Tenho51FIN1:48:235:09 11.68106M50VARKAUS
Vos photos grâce à Sportograf1749.3462DECROLY Frederique42BEL1:48:245:09 11.68247M40BRUXELLES 20
Vos photos grâce à Sportograf1750.8241COFELICE Nicola27BEL1:48:245:09 11.68691SEHBRUXELLES 20
Vos photos grâce à Sportograf1751.9457PERIGNON Samuel28BEL1:48:245:09 11.68692SEHANDERLECHT
Vos photos grâce à Sportograf1752.5621NEUBERG Claude52BEL1:48:245:09 11.68107M50HABAY-LA-NEUVE
Vos photos grâce à Sportograf1753.4492BARBE Kristof37BEL1:48:245:09 11.68305M35LENNIK
Vos photos grâce à Sportograf1754.5683RAMPELBERGH Nico32BEL1:48:245:09 11.68693SEHRANST
Vos photos grâce à Sportograf1755.8497FTHENESH Florence50GBR1:48:255:09 11.684F50
Vos photos grâce à Sportograf1756.3668D'HEUVAERT Guy38BEL1:48:265:09 11.67306M35MERELBEKE
Vos photos grâce à Sportograf1757.7123DESMET Thierry37BEL1:48:265:09 11.67307M35SCHOTEN
Vos photos grâce à Sportograf1758.3255FZEBROWSKI Maeva30BEL1:48:265:09 11.6773SEFBRUXELLES
Vos photos grâce à Sportograf1759.6851MALLET Francois30BEL1:48:275:09 11.67694SEHSAINT GILLES
Vos photos grâce à Sportograf1760.7866STUBBE Stephane46BEL1:48:285:09 11.67180M45BRUXELLES
Vos photos grâce à Sportograf1761.5370KALAN Norbert26IRL1:48:285:09 11.67695SEHASHBOURNE
Vos photos grâce à Sportograf1762.4320ANDERSEN Stig Visti45BEL1:48:295:09 11.67181M45BRUSSELS
Vos photos grâce à Sportograf1763.7535FVAN CASTER Sandrine36BEL1:48:305:09 11.6722F35LA HULPE
Vos photos grâce à Sportograf1764.5474EL FKIH BEN AHMED Rachid45BEL1:48:305:09 11.67182M45BRUXELLES
Vos photos grâce à Sportograf1765.9132SURQUIN Jean-Luc42BEL1:48:305:09 11.67248M40
Vos photos grâce à Sportograf1766.3423FARON Sabine39BEL1:48:315:09 11.6623F35JETTE
Vos photos grâce à Sportograf1767.3571FTOOHEY Kathryn42AUS1:48:335:09 11.6616F40BRUSSELS
Vos photos grâce à Sportograf1768.9934LOZANO Rodolfo22BEL1:48:335:09 11.66696SEHX
Vos photos grâce à Sportograf1769.9952HARDY Patrice49FRA1:48:355:09 11.66183M45ANCENIS
Vos photos grâce à Sportograf1770.3557RAMAN Jerryd23BEL1:48:355:09 11.66697SEHDENDERMONDE
Vos photos grâce à Sportograf1771.6424ABSIL Michel51BEL1:48:355:09 11.66108M50BRUXELLES 18
Vos photos grâce à Sportograf1772.7420ARAEZ ZABAS Carlos44BEL1:48:365:09 11.66249M40LIMAL
Vos photos grâce à Sportograf1773.6030BIJLSMA Auke44NLD1:48:385:09 11.65250M40LEMSTERLAND
Vos photos grâce à Sportograf1774.9406FLENAERS Bernadette49BEL1:48:385:09 11.6516F45
Vos photos grâce à Sportograf1775.7436MLEKUZ Gorazd53SVN1:48:395:09 11.65109M50DESKLE
Vos photos grâce à Sportograf1776.5409KARLSSON Morgan42SWE1:48:395:09 11.65251M40NYG?RD
Vos photos grâce à Sportograf1777.3915FRUSSELL Olivia23IRL1:48:395:10 11.6574SEFDUBLIN
Vos photos grâce à Sportograf1778.5734MAES Dimitri28BEL1:48:395:10 11.65698SEHSINT-NIKLAAS
Vos photos grâce à Sportograf1779.8024EGO Amedee22BEL1:48:405:10 11.65699SEHANDERLECHT
Vos photos grâce à Sportograf1780.7361TLIKIN Guy-Roger40BEL1:48:415:10 11.65252M40LOUVAIN LA NEUVE
Vos photos grâce à Sportograf1781.5131VAN LOOK Bert46BEL1:48:415:10 11.65184M45WUUSTWEZEL
Vos photos grâce à Sportograf1782.5979FVAN DEN EEDE Joke27BEL1:48:415:10 11.6575SEFMEISE
Vos photos grâce à Sportograf1783.6631MYRSTAD Finn29BEL1:48:425:10 11.65700SEHBRUS
Vos photos grâce à Sportograf1784.3519ROBERTSON Peter33BEL1:48:435:10 11.64701SEHWATERLOO
Vos photos grâce à Sportograf1785.8337KRAINZ Alexander40BEL1:48:435:10 11.64253M40OUDERGEM
Vos photos grâce à Sportograf1786.7422VANDEVELDE Sam24BEL1:48:445:10 11.64702SEHKESSEL-LO
Vos photos grâce à Sportograf1787.9556KAPARIS Olivier40BEL1:48:455:10 11.64254M40RHODE-SAINT-GENESE
Vos photos grâce à Sportograf1788.7325KARSAI Danny40BEL1:48:455:10 11.64255M40BEVEREN-WAAS
Vos photos grâce à Sportograf1789.9313VAN GYSEL Marc48BEL1:48:455:10 11.64185M45
Vos photos grâce à Sportograf1790.7315FMOULIN-ROMSEE Marie-Pierre37BEL1:48:455:10 11.6424F35LOMMEL
Vos photos grâce à Sportograf1791.7053VAN AUTREVE Rudy51BEL1:48:465:10 11.64110M50GENT
Vos photos grâce à Sportograf1792.4466BERGHMANS Pascal45BEL1:48:475:10 11.64256M40BRUXELLES
Vos photos grâce à Sportograf1793.7874ROMERO Fernando51BEL1:48:485:10 11.63111M50BRUSSELS
Vos photos grâce à Sportograf1794.9485FANNET Brigitte37BEL1:48:495:10 11.6325F35DION-VALMONT
Vos photos grâce à Sportograf1795.5542ROLLING Bruno46BEL1:48:495:10 11.63186M45BRUXELLES
Vos photos grâce à Sportograf1796.9644SCHWEISTHAL Michel43BEL1:48:495:10 11.63257M40BRUXELLES 15
Vos photos grâce à Sportograf1797.8328VANFROYENHOVEN Franky39BEL1:48:515:10 11.63308M35ZAVENTEM
Vos photos grâce à Sportograf1798.6214NORDH Christer48BEL1:48:525:10 11.63187M45BRUXELLES
Vos photos grâce à Sportograf1799.6972BARDET Gildas26BEL1:48:545:10 11.62703SEHLOUVAIN LA NEUVE
Vos photos grâce à Sportograf1800.4955VAN CAUWENBERGHE Karel54BEL1:48:545:10 11.62112M50MORTSEL
DNF: abandon; DSQ: disqualifié; Vitesse en km/h
ChronoRace - Electronic Timing - www.chronorace.be